createdAt,value
2022-12-05T01:34:19.289Z,997.59
2022-12-05T01:39:19.247Z,997.64
2022-12-05T01:44:18.988Z,997.65
2022-12-05T01:49:18.936Z,997.67
2022-12-05T01:55:50.638Z,997.68
2022-12-05T02:00:50.253Z,997.67
2022-12-05T02:05:50.429Z,997.68
2022-12-05T02:10:50.273Z,997.71
2022-12-05T02:15:53.910Z,997.70
2022-12-05T02:22:37.118Z,997.81
2022-12-05T02:41:47.418Z,997.96
2022-12-05T03:00:24.437Z,997.90
2022-12-05T03:05:24.039Z,997.91
2022-12-05T03:54:43.038Z,997.79
2022-12-05T05:06:25.139Z,998.07
2022-12-05T05:11:24.906Z,998.13
2022-12-05T05:16:24.677Z,998.16
2022-12-05T05:21:24.552Z,998.20
2022-12-05T05:26:24.512Z,998.26
2022-12-05T05:31:24.457Z,998.27
2022-12-05T05:48:59.687Z,998.42
2022-12-05T05:56:26.193Z,998.35
2022-12-05T07:07:35.357Z,998.60
2022-12-05T07:22:23.453Z,998.77
2022-12-05T07:32:58.965Z,998.78
2022-12-05T07:43:04.069Z,998.86
2022-12-05T07:49:36.808Z,998.76
2022-12-05T07:55:54.070Z,998.89
2022-12-05T08:00:54.048Z,998.97
2022-12-05T08:05:53.895Z,998.94
2022-12-05T08:11:01.417Z,998.89
2022-12-05T08:16:01.175Z,999.02
2022-12-05T08:21:01.465Z,999.07
2022-12-05T09:59:46.900Z,999.71
2022-12-05T10:20:45.527Z,999.63
2022-12-05T10:28:39.482Z,999.59
2022-12-05T10:33:39.770Z,999.62
2022-12-05T10:47:42.932Z,999.59
2022-12-05T10:52:42.683Z,999.53
2022-12-05T10:57:42.700Z,999.54
2022-12-05T11:02:43.055Z,999.53
2022-12-05T11:07:42.595Z,999.59
2022-12-05T11:12:42.747Z,999.61
2022-12-05T11:17:42.408Z,999.53
2022-12-05T11:22:45.769Z,999.53
2022-12-05T11:27:43.447Z,999.56
2022-12-05T11:32:42.264Z,999.45
2022-12-05T11:37:45.231Z,999.30
2022-12-05T11:42:42.278Z,999.24
2022-12-05T11:47:42.080Z,999.29
2022-12-05T11:52:42.108Z,999.33
2022-12-05T11:57:44.141Z,999.40
2022-12-05T12:02:42.974Z,999.46
2022-12-05T12:07:42.056Z,999.48
2022-12-05T12:12:41.892Z,999.44
2022-12-05T12:42:24.389Z,999.58
2022-12-05T12:51:14.574Z,999.63
2022-12-05T12:56:14.399Z,999.58
2022-12-05T13:01:14.989Z,999.64
2022-12-05T13:31:16.141Z,999.72
2022-12-05T13:39:46.819Z,999.65
2022-12-05T13:46:14.930Z,999.63
2022-12-05T13:51:27.973Z,999.65
2022-12-05T13:56:14.502Z,999.66
2022-12-05T14:01:15.093Z,999.72
2022-12-05T14:07:37.062Z,999.70
2022-12-05T14:12:36.837Z,999.70
2022-12-05T14:17:37.058Z,999.61
2022-12-05T14:22:36.664Z,999.54
2022-12-05T14:27:37.290Z,999.57
2022-12-05T14:32:36.719Z,999.61
2022-12-05T14:37:37.478Z,999.57
2022-12-05T14:42:36.890Z,999.49
2022-12-05T14:50:32.881Z,999.51
2022-12-05T14:55:32.915Z,999.53
2022-12-05T15:00:32.523Z,999.54
2022-12-05T15:05:44.656Z,999.55
2022-12-05T15:10:32.370Z,999.51
2022-12-05T15:15:32.909Z,999.53
2022-12-05T15:20:38.526Z,999.54
2022-12-05T15:25:33.389Z,999.60
2022-12-05T15:37:59.930Z,999.80
2022-12-05T16:02:31.175Z,999.87
2022-12-05T16:08:53.297Z,999.84
2022-12-05T16:35:39.890Z,999.91
2022-12-05T16:40:39.615Z,999.81
2022-12-05T16:45:40.487Z,999.89
2022-12-05T16:50:39.625Z,999.92
2022-12-05T16:56:57.704Z,999.97
2022-12-05T17:01:57.477Z,1000.00
2022-12-05T17:06:57.389Z,1000.02
2022-12-05T17:11:57.358Z,1000.11
2022-12-05T17:16:57.283Z,1000.12
2022-12-05T17:21:57.182Z,1000.19
2022-12-05T17:26:57.141Z,1000.14
2022-12-05T17:31:57.407Z,1000.14
2022-12-05T17:36:56.994Z,1000.19
2022-12-05T17:41:56.927Z,1000.17
2022-12-05T17:47:06.104Z,1000.16
2022-12-05T17:52:20.966Z,1000.23
2022-12-05T17:56:57.880Z,1000.26
2022-12-05T18:01:56.771Z,1000.29
2022-12-05T18:06:56.804Z,1000.33
2022-12-05T18:11:56.577Z,1000.29
2022-12-05T18:16:56.621Z,1000.34
2022-12-05T18:21:56.747Z,1000.31
2022-12-05T18:26:56.349Z,1000.31
2022-12-05T18:31:56.595Z,1000.36
2022-12-05T18:36:56.515Z,1000.40
2022-12-05T18:41:56.145Z,1000.44
2022-12-05T18:46:59.187Z,1000.40
2022-12-05T18:51:56.013Z,1000.42
2022-12-05T18:56:56.751Z,1000.44
2022-12-05T19:01:55.957Z,1000.46
2022-12-05T19:06:55.992Z,1000.52
2022-12-05T19:12:07.613Z,1000.54
2022-12-05T19:16:59.926Z,1000.58
2022-12-05T19:21:55.815Z,1000.58
2022-12-05T19:26:55.731Z,1000.49
2022-12-05T19:31:55.675Z,1000.49
2022-12-05T19:36:55.554Z,1000.45
2022-12-05T19:41:55.398Z,1000.49
2022-12-05T19:47:05.740Z,1000.52
2022-12-05T19:58:23.559Z,1000.53
2022-12-05T20:03:22.688Z,1000.47
2022-12-05T20:08:22.441Z,1000.46
2022-12-05T20:13:46.072Z,1000.57
2022-12-05T20:18:23.435Z,1000.62
2022-12-05T20:23:22.343Z,1000.56
2022-12-05T20:28:22.164Z,1000.57
2022-12-05T20:33:22.106Z,1000.56
2022-12-05T20:38:22.053Z,1000.54
2022-12-05T20:43:21.941Z,1000.57
2022-12-05T20:48:24.828Z,1000.53
2022-12-05T20:53:29.837Z,1000.44
2022-12-05T20:59:41.314Z,1000.29
2022-12-05T21:04:39.508Z,1000.26
2022-12-05T21:09:39.589Z,1000.34
2022-12-05T21:14:39.363Z,1000.37
2022-12-05T21:19:39.416Z,1000.36
2022-12-05T21:24:39.340Z,1000.34
2022-12-05T21:29:39.136Z,1000.33
2022-12-05T21:34:39.174Z,1000.27
2022-12-05T21:39:39.077Z,1000.21
2022-12-05T21:44:38.941Z,1000.29
2022-12-05T21:49:41.981Z,1000.26
2022-12-05T21:54:38.949Z,1000.21
2022-12-05T21:59:38.939Z,1000.24
2022-12-05T22:10:11.096Z,1000.29
2022-12-05T22:15:10.329Z,1000.27
2022-12-05T22:20:10.428Z,1000.29
2022-12-05T22:25:10.201Z,1000.33
2022-12-05T22:30:10.184Z,1000.33
2022-12-05T22:35:10.036Z,1000.27
2022-12-05T22:40:10.069Z,1000.24
2022-12-05T22:45:09.945Z,1000.24
2022-12-05T22:50:09.875Z,1000.14
2022-12-05T22:55:09.775Z,1000.12
2022-12-05T23:00:12.776Z,1000.15
2022-12-05T23:05:09.684Z,1000.20
2022-12-05T23:10:09.943Z,1000.08
2022-12-05T23:15:09.534Z,999.99
2022-12-05T23:20:09.629Z,999.91
2022-12-05T23:25:09.460Z,999.87
2022-12-05T23:30:09.404Z,999.86
2022-12-05T23:35:09.272Z,999.80
2022-12-05T23:40:09.389Z,999.76
2022-12-05T23:45:09.199Z,999.71
2022-12-05T23:50:09.148Z,999.69
2022-12-05T23:55:09.156Z,999.60
